createdAt,value
2018-11-04T00:01:21.108Z,50.10
2018-11-04T00:03:49.697Z,50.30
2018-11-04T00:06:18.830Z,50.30
2018-11-04T00:08:47.817Z,50.30
2018-11-04T00:11:16.557Z,50.20
2018-11-04T00:13:45.344Z,50.30
2018-11-04T00:16:14.647Z,49.90
2018-11-04T00:18:43.191Z,50.20
2018-11-04T00:21:11.774Z,50.40
2018-11-04T00:23:40.345Z,50.40
2018-11-04T00:26:09.184Z,50.20
2018-11-04T00:28:37.996Z,50.10
2018-11-04T00:31:06.850Z,50.20
2018-11-04T00:33:35.507Z,50.10
2018-11-04T00:36:04.074Z,50.20
2018-11-04T00:38:32.604Z,50.10
2018-11-04T00:41:01.286Z,50.00
2018-11-04T00:43:30.114Z,50.00
2018-11-04T00:45:58.637Z,50.10
2018-11-04T00:48:27.364Z,50.30
2018-11-04T00:50:55.865Z,50.10
2018-11-04T00:53:24.402Z,50.30
2018-11-04T00:55:54.603Z,50.50
2018-11-04T00:58:24.322Z,50.40
2018-11-04T01:00:52.883Z,51.10
2018-11-04T01:03:21.446Z,50.30
2018-11-04T01:05:49.993Z,50.40
2018-11-04T01:08:18.559Z,50.40
2018-11-04T01:10:47.150Z,50.30
2018-11-04T01:13:15.701Z,50.60
2018-11-04T01:15:44.216Z,50.60
2018-11-04T01:18:12.823Z,50.60
2018-11-04T01:20:41.409Z,50.40
2018-11-04T01:23:10.488Z,50.50
2018-11-04T01:25:39.073Z,50.50
2018-11-04T01:28:08.323Z,50.50
2018-11-04T01:30:36.885Z,50.80
2018-11-04T01:33:06.279Z,50.90
2018-11-04T01:35:34.969Z,50.80
2018-11-04T01:38:03.505Z,51.00
2018-11-04T01:40:32.361Z,51.00
2018-11-04T01:43:00.918Z,51.00
2018-11-04T01:45:29.685Z,50.90
2018-11-04T01:47:58.331Z,51.00
2018-11-04T01:50:26.940Z,51.00
2018-11-04T01:52:55.459Z,51.10
2018-11-04T01:55:24.101Z,51.10
2018-11-04T01:57:52.635Z,51.10
2018-11-04T02:00:21.205Z,51.20
2018-11-04T02:02:49.783Z,51.10
2018-11-04T02:05:18.326Z,51.20
2018-11-04T02:07:47.340Z,51.00
2018-11-04T02:10:15.989Z,51.10
2018-11-04T02:12:44.475Z,51.00
2018-11-04T02:15:13.760Z,51.40
2018-11-04T02:17:42.307Z,51.40
2018-11-04T02:20:12.004Z,51.30
2018-11-04T02:22:41.123Z,51.30
2018-11-04T02:25:11.425Z,51.40
2018-11-04T02:27:40.415Z,51.40
2018-11-04T02:30:11.794Z,51.40
2018-11-04T02:32:40.647Z,51.30
2018-11-04T02:35:09.332Z,51.10
2018-11-04T02:37:37.864Z,50.70
2018-11-04T02:40:06.433Z,51.40
2018-11-04T02:42:34.978Z,51.00
2018-11-04T02:45:03.573Z,51.20
2018-11-04T02:47:39.142Z,51.10
2018-11-04T02:50:08.913Z,51.30
2018-11-04T02:52:37.660Z,51.30
2018-11-04T02:55:07.045Z,51.30
2018-11-04T02:57:36.392Z,51.20
2018-11-04T03:00:06.008Z,51.80
2018-11-04T03:02:34.517Z,51.20
2018-11-04T03:05:03.080Z,50.80
2018-11-04T03:07:31.640Z,50.90
2018-11-04T03:10:00.164Z,51.00
2018-11-04T03:12:28.837Z,51.10
2018-11-04T03:14:57.396Z,51.10
2018-11-04T03:17:26.088Z,51.70
2018-11-04T03:19:54.640Z,51.00
2018-11-04T03:22:23.170Z,50.90
2018-11-04T03:24:51.659Z,51.00
2018-11-04T03:27:20.205Z,50.80
2018-11-04T03:29:48.747Z,50.80
2018-11-04T03:32:17.701Z,50.60
2018-11-04T03:34:46.244Z,50.80
2018-11-04T03:37:14.876Z,50.80
2018-11-04T03:39:43.532Z,50.70
2018-11-04T03:42:12.276Z,51.10
2018-11-04T03:44:41.047Z,50.80
2018-11-04T03:47:10.709Z,50.80
2018-11-04T03:49:39.560Z,50.80
2018-11-04T03:52:09.093Z,50.80
2018-11-04T03:54:37.803Z,50.90
2018-11-04T03:57:06.573Z,50.90
2018-11-04T03:59:35.593Z,51.00
2018-11-04T04:02:04.178Z,51.00
2018-11-04T04:04:32.697Z,51.00
2018-11-04T04:07:01.270Z,51.00
2018-11-04T04:09:29.929Z,51.00
2018-11-04T04:11:58.526Z,51.20
2018-11-04T04:14:27.448Z,51.20
2018-11-04T04:16:56.162Z,51.30
2018-11-04T04:19:24.976Z,51.20
2018-11-04T04:21:53.699Z,51.30
2018-11-04T04:24:22.215Z,51.60
2018-11-04T04:26:50.771Z,51.40
2018-11-04T04:29:19.275Z,51.20
2018-11-04T04:31:47.890Z,51.60
2018-11-04T04:34:16.727Z,51.70
2018-11-04T04:36:45.275Z,52.50
2018-11-04T04:39:14.231Z,52.00
2018-11-04T04:41:43.013Z,51.90
2018-11-04T04:44:11.539Z,52.10
2018-11-04T04:46:40.188Z,51.90
2018-11-04T04:49:08.890Z,52.10
2018-11-04T04:51:37.410Z,52.10
2018-11-04T04:54:06.301Z,52.10
2018-11-04T04:56:35.141Z,52.20
2018-11-04T04:59:03.696Z,52.20
2018-11-04T05:01:32.413Z,52.30
2018-11-04T05:04:01.023Z,52.30
2018-11-04T05:06:29.550Z,52.40
2018-11-04T05:08:58.712Z,52.40
2018-11-04T05:11:27.278Z,52.30
2018-11-04T05:13:55.861Z,52.60
2018-11-04T05:16:24.548Z,52.50
2018-11-04T05:18:53.084Z,52.80
2018-11-04T05:21:21.622Z,52.70
2018-11-04T05:23:50.528Z,52.70
2018-11-04T05:26:19.065Z,52.70
2018-11-04T05:28:47.679Z,52.70
2018-11-04T05:31:16.284Z,52.90
2018-11-04T05:33:44.877Z,52.70
2018-11-04T05:36:13.540Z,52.80
2018-11-04T05:38:42.119Z,52.70
2018-11-04T05:41:10.648Z,52.80
2018-11-04T05:43:39.161Z,53.00
2018-11-04T05:46:08.016Z,52.80
2018-11-04T05:48:36.708Z,53.10
2018-11-04T05:51:05.565Z,53.10
2018-11-04T05:53:34.192Z,53.20
2018-11-04T05:56:02.717Z,53.30
2018-11-04T05:58:31.486Z,53.20
2018-11-04T06:01:00.377Z,53.20
2018-11-04T06:03:28.973Z,52.80
2018-11-04T06:05:57.559Z,53.00
2018-11-04T06:08:26.185Z,53.00
2018-11-04T06:10:54.760Z,52.80
2018-11-04T06:13:23.247Z,52.80
2018-11-04T06:15:52.109Z,52.70
2018-11-04T06:18:20.632Z,52.90
2018-11-04T06:20:49.227Z,53.30
2018-11-04T06:23:17.876Z,53.10
2018-11-04T06:25:46.407Z,53.50
2018-11-04T06:28:14.985Z,53.30
2018-11-04T06:30:43.542Z,53.20
2018-11-04T06:33:12.088Z,53.30
2018-11-04T06:35:40.713Z,53.40
2018-11-04T06:38:09.369Z,53.60
2018-11-04T06:40:37.918Z,53.80
2018-11-04T06:43:06.967Z,53.80
2018-11-04T06:45:35.628Z,53.60
2018-11-04T06:48:04.444Z,53.70
2018-11-04T06:50:33.153Z,53.80
2018-11-04T06:53:01.807Z,53.50
2018-11-04T06:55:30.320Z,53.60
2018-11-04T06:57:59.538Z,54.20
2018-11-04T07:00:28.069Z,53.70
2018-11-04T07:02:56.656Z,53.90
2018-11-04T07:05:25.219Z,53.80
2018-11-04T07:07:53.801Z,53.80
2018-11-04T07:10:23.376Z,54.00
2018-11-04T07:12:52.856Z,53.90
2018-11-04T07:15:23.673Z,54.10
2018-11-04T07:17:52.249Z,53.90
2018-11-04T07:20:20.807Z,54.10
2018-11-04T07:22:49.465Z,54.10
2018-11-04T07:25:18.073Z,54.80
2018-11-04T07:27:46.619Z,54.10
2018-11-04T07:30:15.160Z,54.10
2018-11-04T07:32:43.728Z,54.30
2018-11-04T07:35:12.328Z,54.40
2018-11-04T07:37:41.561Z,54.50
2018-11-04T07:40:10.361Z,54.30
2018-11-04T07:42:39.428Z,54.50
2018-11-04T07:45:08.994Z,54.70
2018-11-04T07:47:37.747Z,54.80
2018-11-04T07:50:09.620Z,55.10
2018-11-04T07:52:38.221Z,55.00
2018-11-04T07:55:08.073Z,55.20
2018-11-04T07:57:38.870Z,55.40
2018-11-04T08:00:09.966Z,55.40
2018-11-04T08:02:38.508Z,55.40
2018-11-04T08:05:08.029Z,55.60
2018-11-04T08:07:37.370Z,55.50
2018-11-04T08:10:07.729Z,55.60
2018-11-04T08:12:36.310Z,55.50
2018-11-04T08:15:05.105Z,55.60
2018-11-04T08:17:34.391Z,55.80
2018-11-04T08:20:02.932Z,55.90
2018-11-04T08:22:31.733Z,55.70
2018-11-04T08:25:00.321Z,56.00
2018-11-04T08:27:28.931Z,55.90
2018-11-04T08:29:57.536Z,56.20
2018-11-04T08:32:26.475Z,56.40
2018-11-04T08:34:55.641Z,56.20
2018-11-04T08:37:24.371Z,56.30
2018-11-04T08:39:53.086Z,56.40
2018-11-04T08:42:21.534Z,56.60
2018-11-04T08:44:50.822Z,56.50
2018-11-04T08:47:19.401Z,56.60
2018-11-04T08:49:48.002Z,56.50
2018-11-04T08:52:16.611Z,56.60
2018-11-04T08:54:45.904Z,56.50
2018-11-04T08:57:14.888Z,56.70
2018-11-04T08:59:43.763Z,56.60
2018-11-04T09:02:12.597Z,56.70
2018-11-04T09:04:41.418Z,56.00
2018-11-04T09:07:09.965Z,55.80
2018-11-04T09:09:38.736Z,55.90
2018-11-04T09:12:07.378Z,55.80
2018-11-04T09:14:36.764Z,55.90
2018-11-04T09:17:06.048Z,55.80
2018-11-04T09:19:34.751Z,55.60
2018-11-04T09:22:03.477Z,55.70
2018-11-04T09:24:31.987Z,55.90
2018-11-04T09:27:00.622Z,55.70
2018-11-04T09:29:29.344Z,55.90
2018-11-04T09:31:57.957Z,55.90
2018-11-04T09:34:26.649Z,56.00
2018-11-04T09:36:55.355Z,55.90
2018-11-04T09:39:23.944Z,56.00
2018-11-04T09:41:52.736Z,55.60
2018-11-04T09:44:21.325Z,55.90
2018-11-04T09:46:51.052Z,55.90
2018-11-04T09:49:19.713Z,56.90
2018-11-04T09:51:48.595Z,56.40
2018-11-04T09:54:18.373Z,56.40
2018-11-04T09:56:47.086Z,56.60
2018-11-04T09:59:15.665Z,56.50
2018-11-04T10:01:44.397Z,56.30
2018-11-04T10:04:13.186Z,56.70
2018-11-04T10:06:42.114Z,56.50
2018-11-04T10:09:11.572Z,56.40
2018-11-04T10:11:40.652Z,56.40
2018-11-04T10:14:09.420Z,56.40
2018-11-04T10:16:38.363Z,56.50
2018-11-04T10:19:07.372Z,56.50
2018-11-04T10:21:36.012Z,56.60
2018-11-04T10:24:05.003Z,56.50
2018-11-04T10:26:33.793Z,56.70
2018-11-04T10:29:02.665Z,56.70
2018-11-04T10:31:31.740Z,56.70
2018-11-04T10:34:00.528Z,56.90
2018-11-04T10:36:29.205Z,57.60
2018-11-04T10:38:57.843Z,56.70
2018-11-04T10:41:26.566Z,56.70
2018-11-04T10:43:55.212Z,57.10
2018-11-04T10:46:23.854Z,57.20
2018-11-04T10:48:52.440Z,57.20
2018-11-04T10:51:21.208Z,57.00
2018-11-04T10:53:49.970Z,57.00
2018-11-04T10:56:18.564Z,57.30
2018-11-04T10:58:47.165Z,57.20
2018-11-04T11:01:15.866Z,57.30
2018-11-04T11:03:44.712Z,57.10
2018-11-04T11:06:13.325Z,57.00
2018-11-04T11:08:42.876Z,57.00
2018-11-04T11:11:11.442Z,56.90
2018-11-04T11:13:40.805Z,56.90
2018-11-04T11:16:09.595Z,57.20
2018-11-04T11:18:38.235Z,57.30
2018-11-04T11:21:07.005Z,57.40
2018-11-04T11:23:36.258Z,57.20
2018-11-04T11:26:05.551Z,57.20
2018-11-04T11:28:34.295Z,57.20
2018-11-04T11:31:03.427Z,57.20
2018-11-04T11:33:32.144Z,57.40
2018-11-04T11:36:01.635Z,57.30
2018-11-04T11:38:30.344Z,57.10
2018-11-04T11:40:59.003Z,57.30
2018-11-04T11:43:27.870Z,57.40
2018-11-04T11:45:56.464Z,57.50
2018-11-04T11:48:25.149Z,57.10
2018-11-04T11:50:53.997Z,57.10
2018-11-04T11:53:23.474Z,57.20
2018-11-04T11:55:52.309Z,57.20
2018-11-04T11:58:21.101Z,57.10
2018-11-04T12:00:49.750Z,57.00
2018-11-04T12:03:18.281Z,57.20
2018-11-04T12:05:47.034Z,57.20
2018-11-04T12:08:15.896Z,56.90
2018-11-04T12:10:44.530Z,57.00
2018-11-04T12:13:13.067Z,56.80
2018-11-04T12:15:42.027Z,56.90
2018-11-04T12:18:10.688Z,56.70
2018-11-04T12:20:39.248Z,57.30
2018-11-04T12:23:08.129Z,56.70
2018-11-04T12:25:37.456Z,56.50
2018-11-04T12:28:06.345Z,56.40
2018-11-04T12:30:35.080Z,56.50
2018-11-04T12:33:03.730Z,56.40
2018-11-04T12:35:32.280Z,56.40
2018-11-04T12:38:00.843Z,56.30
2018-11-04T12:40:29.412Z,56.20
2018-11-04T12:42:58.052Z,56.10
2018-11-04T12:45:26.980Z,55.90
2018-11-04T12:47:55.835Z,55.90
2018-11-04T12:50:24.596Z,56.00
2018-11-04T12:52:53.439Z,55.90
2018-11-04T12:55:22.050Z,55.70
2018-11-04T12:57:50.946Z,55.80
2018-11-04T13:00:19.538Z,55.80
2018-11-04T13:02:48.159Z,55.50
2018-11-04T13:05:16.764Z,55.30
2018-11-04T13:07:45.379Z,55.30
2018-11-04T13:10:14.923Z,55.20
2018-11-04T13:12:43.771Z,55.50
2018-11-04T13:15:13.608Z,55.40
2018-11-04T13:17:42.819Z,55.00
2018-11-04T13:20:11.879Z,55.20
2018-11-04T13:22:40.729Z,55.20
2018-11-04T13:25:10.653Z,55.10
2018-11-04T13:27:39.283Z,55.00
2018-11-04T13:30:10.351Z,55.10
2018-11-04T13:32:39.217Z,55.20
2018-11-04T13:35:07.928Z,55.00
2018-11-04T13:37:36.961Z,55.00
2018-11-04T13:40:07.776Z,54.70
2018-11-04T13:42:36.393Z,54.80
2018-11-04T13:45:05.926Z,54.80
2018-11-04T13:47:34.713Z,54.70
2018-11-04T13:50:03.757Z,54.80
2018-11-04T13:52:32.385Z,54.80
2018-11-04T13:55:01.086Z,54.70
2018-11-04T13:57:29.739Z,54.50
2018-11-04T13:59:58.719Z,54.70
2018-11-04T14:02:27.366Z,54.50
2018-11-04T14:04:56.162Z,54.40
2018-11-04T14:07:24.932Z,54.70
2018-11-04T14:09:53.618Z,54.00
2018-11-04T14:12:22.272Z,54.10
2018-11-04T14:14:51.065Z,54.00
2018-11-04T14:17:19.650Z,53.90
2018-11-04T14:19:48.369Z,53.90
2018-11-04T14:22:16.951Z,54.60
2018-11-04T14:24:45.542Z,54.00
2018-11-04T14:27:14.213Z,53.90
2018-11-04T14:29:42.954Z,53.70
2018-11-04T14:32:12.056Z,53.80
2018-11-04T14:34:40.718Z,53.70
2018-11-04T14:37:09.545Z,53.60
2018-11-04T14:39:38.252Z,53.60
2018-11-04T14:42:06.948Z,53.70
2018-11-04T14:44:35.810Z,53.40
2018-11-04T14:47:04.525Z,53.50
2018-11-04T14:49:33.240Z,53.40
2018-11-04T14:52:01.949Z,53.50
2018-11-04T14:54:30.873Z,53.60
2018-11-04T14:56:59.502Z,53.20
2018-11-04T14:59:28.215Z,53.60
2018-11-04T15:01:57.196Z,53.50
2018-11-04T15:04:25.864Z,53.30
2018-11-04T15:06:54.584Z,53.40
2018-11-04T15:09:23.718Z,53.20
2018-11-04T15:11:52.359Z,53.10
2018-11-04T15:14:21.013Z,53.10
2018-11-04T15:16:49.895Z,52.90
2018-11-04T15:19:18.543Z,53.00
2018-11-04T15:21:47.209Z,52.90
2018-11-04T15:24:16.413Z,52.80
2018-11-04T15:26:45.107Z,53.00
2018-11-04T15:29:13.981Z,53.10
2018-11-04T15:31:42.590Z,53.10
2018-11-04T15:34:11.357Z,52.90
2018-11-04T15:36:39.846Z,52.60
2018-11-04T15:39:10.626Z,53.00
2018-11-04T15:41:39.423Z,53.20
2018-11-04T15:44:09.544Z,52.90
2018-11-04T15:46:39.380Z,52.70
2018-11-04T15:49:09.024Z,52.70
2018-11-04T15:51:37.447Z,52.70
2018-11-04T15:54:06.553Z,52.70
2018-11-04T15:56:35.695Z,52.40
2018-11-04T15:59:04.975Z,52.60
2018-11-04T16:01:33.531Z,52.40
2018-11-04T16:04:02.529Z,52.60
2018-11-04T16:06:31.091Z,52.80
2018-11-04T16:09:00.023Z,53.20
2018-11-04T16:11:29.043Z,53.20
2018-11-04T16:13:57.802Z,53.20
2018-11-04T16:16:26.371Z,53.00
2018-11-04T16:18:55.197Z,53.00
2018-11-04T16:21:23.846Z,53.10
2018-11-04T16:23:52.370Z,52.90
2018-11-04T16:26:20.942Z,53.50
2018-11-04T16:28:49.492Z,52.50
2018-11-04T16:31:18.135Z,52.80
2018-11-04T16:33:46.705Z,52.70
2018-11-04T16:36:15.427Z,52.70
2018-11-04T16:38:44.110Z,52.60
2018-11-04T16:41:12.750Z,52.70
2018-11-04T16:43:41.465Z,52.70
2018-11-04T16:46:10.458Z,52.50
2018-11-04T16:48:39.093Z,52.80
2018-11-04T16:51:07.857Z,52.70
2018-11-04T16:53:36.696Z,52.80
2018-11-04T16:56:06.065Z,52.60
2018-11-04T16:58:34.661Z,52.70
2018-11-04T17:01:03.414Z,52.50
2018-11-04T17:03:32.078Z,52.50
2018-11-04T17:06:00.936Z,52.20
2018-11-04T17:08:29.519Z,52.40
2018-11-04T17:10:58.414Z,52.70
2018-11-04T17:13:26.976Z,52.50
2018-11-04T17:15:55.895Z,52.40
2018-11-04T17:18:24.543Z,52.50
2018-11-04T17:20:53.309Z,52.30
2018-11-04T17:23:22.236Z,52.30
2018-11-04T17:25:50.785Z,52.40
2018-11-04T17:28:19.368Z,52.10
2018-11-04T17:30:48.029Z,52.20
2018-11-04T17:33:16.799Z,52.10
2018-11-04T17:35:45.502Z,51.90
2018-11-04T17:38:14.155Z,52.10
2018-11-04T17:40:42.830Z,52.00
2018-11-04T17:43:11.538Z,52.30
2018-11-04T17:45:40.120Z,51.90
2018-11-04T17:48:08.894Z,52.40
2018-11-04T17:50:37.862Z,51.60
2018-11-04T17:53:06.540Z,51.60
2018-11-04T17:55:35.951Z,51.40
2018-11-04T17:58:04.602Z,51.40
2018-11-04T18:00:33.349Z,51.60
2018-11-04T18:03:02.101Z,51.50
2018-11-04T18:05:30.652Z,51.10
2018-11-04T18:07:59.400Z,51.40
2018-11-04T18:10:27.993Z,51.50
2018-11-04T18:12:56.698Z,51.70
2018-11-04T18:15:25.807Z,51.60
2018-11-04T18:17:54.466Z,51.70
2018-11-04T18:20:23.189Z,51.90
2018-11-04T18:22:52.203Z,52.00
2018-11-04T18:25:20.752Z,52.00
2018-11-04T18:27:50.039Z,51.90
2018-11-04T18:30:18.626Z,52.00
2018-11-04T18:32:47.599Z,51.80
2018-11-04T18:35:16.674Z,51.50
2018-11-04T18:37:45.330Z,51.00
2018-11-04T18:40:15.684Z,51.40
2018-11-04T18:42:44.956Z,51.40
2018-11-04T18:45:14.839Z,51.40
2018-11-04T18:47:43.960Z,51.10
2018-11-04T18:50:13.686Z,51.30
2018-11-04T18:52:42.358Z,51.50
2018-11-04T18:55:11.810Z,51.80
2018-11-04T18:57:41.337Z,51.60
2018-11-04T19:00:13.017Z,51.70
2018-11-04T19:02:41.742Z,51.50
2018-11-04T19:05:10.656Z,51.30
2018-11-04T19:07:39.737Z,51.40
2018-11-04T19:10:11.409Z,51.50
2018-11-04T19:12:40.065Z,51.40
2018-11-04T19:15:08.848Z,51.30
2018-11-04T19:17:37.775Z,51.60
2018-11-04T19:20:08.477Z,51.40
2018-11-04T19:22:37.370Z,51.60
2018-11-04T19:25:06.937Z,51.70
2018-11-04T19:27:35.595Z,51.90
2018-11-04T19:30:04.530Z,51.80
2018-11-04T19:32:33.148Z,51.80
2018-11-04T19:35:01.699Z,51.70
2018-11-04T19:37:30.372Z,52.10
2018-11-04T19:39:59.150Z,51.70
2018-11-04T19:42:27.762Z,51.60
2018-11-04T19:44:56.325Z,51.40
2018-11-04T19:47:25.024Z,52.30
2018-11-04T19:49:53.717Z,51.90
2018-11-04T19:52:22.568Z,52.70
2018-11-04T19:54:51.159Z,51.90
2018-11-04T19:57:23.379Z,52.10
2018-11-04T19:59:52.142Z,52.20
2018-11-04T20:02:20.795Z,52.20
2018-11-04T20:04:49.348Z,52.30
2018-11-04T20:07:18.585Z,52.10
2018-11-04T20:09:47.170Z,52.10
2018-11-04T20:12:21.284Z,52.20
2018-11-04T20:14:49.892Z,52.80
2018-11-04T20:17:18.532Z,52.50
2018-11-04T20:19:52.731Z,52.40
2018-11-04T20:22:21.512Z,52.40
2018-11-04T20:24:55.454Z,52.40
2018-11-04T20:27:24.659Z,52.60
2018-11-04T20:29:53.723Z,52.70
2018-11-04T20:32:27.580Z,52.50
2018-11-04T20:34:56.151Z,52.60
2018-11-04T20:37:24.757Z,52.40
2018-11-04T20:39:58.727Z,52.40
2018-11-04T20:42:27.318Z,52.60
2018-11-04T20:44:55.964Z,52.50
2018-11-04T20:47:29.689Z,52.50
2018-11-04T20:50:03.700Z,52.40
2018-11-04T20:52:32.405Z,52.40
2018-11-04T20:55:01.029Z,52.30
2018-11-04T20:57:38.535Z,52.60
2018-11-04T21:00:09.888Z,52.40
2018-11-04T21:02:38.798Z,52.40
2018-11-04T21:05:07.588Z,52.40
2018-11-04T21:07:36.849Z,52.20
2018-11-04T21:10:06.966Z,52.10
2018-11-04T21:12:36.698Z,52.30
2018-11-04T21:15:06.268Z,52.40
2018-11-04T21:17:35.023Z,52.30
2018-11-04T21:20:03.910Z,52.50
2018-11-04T21:22:32.582Z,52.40
2018-11-04T21:25:01.224Z,52.20
2018-11-04T21:27:29.799Z,52.10
2018-11-04T21:29:58.451Z,52.10
2018-11-04T21:32:27.056Z,52.20
2018-11-04T21:34:56.709Z,52.00
2018-11-04T21:37:25.870Z,52.00
2018-11-04T21:39:54.819Z,52.40
2018-11-04T21:42:24.202Z,52.30
2018-11-04T21:44:52.739Z,52.30
2018-11-04T21:47:21.379Z,52.50
2018-11-04T21:49:50.151Z,52.40
2018-11-04T21:52:18.774Z,52.60
2018-11-04T21:54:47.464Z,52.60
2018-11-04T21:57:16.050Z,52.60
2018-11-04T21:59:44.575Z,52.70
2018-11-04T22:02:13.266Z,52.60
2018-11-04T22:04:41.843Z,52.30
2018-11-04T22:07:10.349Z,52.10
2018-11-04T22:09:38.944Z,52.30
2018-11-04T22:12:07.679Z,52.40
2018-11-04T22:14:36.362Z,53.00
2018-11-04T22:17:05.513Z,52.10
2018-11-04T22:19:34.262Z,52.80
2018-11-04T22:22:02.894Z,52.20
2018-11-04T22:24:31.461Z,51.90
2018-11-04T22:27:00.054Z,52.30
2018-11-04T22:29:28.652Z,52.10
2018-11-04T22:31:57.309Z,52.30
2018-11-04T22:34:25.908Z,52.10
2018-11-04T22:36:55.098Z,52.10
2018-11-04T22:39:23.681Z,52.00
2018-11-04T22:41:52.325Z,51.80
2018-11-04T22:44:21.603Z,52.00
2018-11-04T22:46:50.406Z,51.90
2018-11-04T22:49:19.010Z,51.80
2018-11-04T22:51:47.549Z,52.10
2018-11-04T22:54:16.192Z,51.90
2018-11-04T22:56:44.750Z,52.20
2018-11-04T22:59:13.337Z,52.60
2018-11-04T23:01:42.065Z,52.20
2018-11-04T23:04:10.656Z,52.20
2018-11-04T23:06:39.172Z,52.40
2018-11-04T23:09:09.619Z,52.50
2018-11-04T23:11:38.632Z,52.20
2018-11-04T23:14:07.434Z,52.50
2018-11-04T23:16:35.980Z,52.40
2018-11-04T23:19:04.808Z,52.30
2018-11-04T23:21:33.409Z,52.10
2018-11-04T23:24:01.943Z,52.30
2018-11-04T23:26:30.738Z,51.90
2018-11-04T23:28:59.312Z,52.00
2018-11-04T23:31:27.914Z,51.70
2018-11-04T23:33:56.559Z,51.80
2018-11-04T23:36:25.299Z,51.80
2018-11-04T23:38:54.042Z,51.90
2018-11-04T23:41:22.674Z,51.80
2018-11-04T23:43:51.349Z,52.40
2018-11-04T23:46:20.070Z,51.90
2018-11-04T23:48:48.673Z,52.00
2018-11-04T23:51:17.757Z,52.30
2018-11-04T23:53:46.372Z,52.20
2018-11-04T23:56:14.981Z,52.40
2018-11-04T23:58:43.613Z,52.40
